sensor_id;sensor_type;location;lat;lon;timestamp;P1;durP1;ratioP1;P2;durP2;ratioP2
33824;SDS011;20127;48.962;8.342;2023-05-29T00:02:59;16.70;;;6.68;;
33824;SDS011;20127;48.962;8.342;2023-05-29T00:06:01;8.18;;;6.38;;
33824;SDS011;20127;48.962;8.342;2023-05-29T00:09:03;8.75;;;5.85;;
33824;SDS011;20127;48.962;8.342;2023-05-29T00:12:05;9.90;;;6.38;;
33824;SDS011;20127;48.962;8.342;2023-05-29T00:15:09;12.95;;;7.93;;
33824;SDS011;20127;48.962;8.342;2023-05-29T00:18:12;20.02;;;6.80;;
33824;SDS011;20127;48.962;8.342;2023-05-29T00:21:14;10.73;;;7.63;;
33824;SDS011;20127;48.962;8.342;2023-05-29T00:24:17;11.55;;;7.47;;
33824;SDS011;20127;48.962;8.342;2023-05-29T00:27:20;12.48;;;7.30;;
33824;SDS011;20127;48.962;8.342;2023-05-29T00:30:23;12.45;;;6.97;;
33824;SDS011;20127;48.962;8.342;2023-05-29T00:33:25;7.65;;;5.53;;
33824;SDS011;20127;48.962;8.342;2023-05-29T00:36:27;7.88;;;6.22;;
33824;SDS011;20127;48.962;8.342;2023-05-29T00:39:29;7.68;;;6.32;;
33824;SDS011;20127;48.962;8.342;2023-05-29T00:42:31;11.63;;;6.18;;
33824;SDS011;20127;48.962;8.342;2023-05-29T00:45:34;10.68;;;5.82;;
33824;SDS011;20127;48.962;8.342;2023-05-29T00:48:37;10.05;;;5.90;;
33824;SDS011;20127;48.962;8.342;2023-05-29T00:51:38;9.60;;;5.40;;
33824;SDS011;20127;48.962;8.342;2023-05-29T00:54:42;15.13;;;6.50;;
33824;SDS011;20127;48.962;8.342;2023-05-29T00:57:45;11.40;;;5.70;;
33824;SDS011;20127;48.962;8.342;2023-05-29T01:00:49;12.10;;;6.43;;
33824;SDS011;20127;48.962;8.342;2023-05-29T01:03:53;8.48;;;5.45;;
33824;SDS011;20127;48.962;8.342;2023-05-29T01:06:58;8.55;;;6.07;;
33824;SDS011;20127;48.962;8.342;2023-05-29T01:10:00;9.90;;;5.65;;
33824;SDS011;20127;48.962;8.342;2023-05-29T01:13:03;8.25;;;5.88;;
33824;SDS011;20127;48.962;8.342;2023-05-29T01:16:12;7.40;;;5.17;;
33824;SDS011;20127;48.962;8.342;2023-05-29T01:19:24;11.93;;;7.00;;
33824;SDS011;20127;48.962;8.342;2023-05-29T01:22:37;10.20;;;5.07;;
33824;SDS011;20127;48.962;8.342;2023-05-29T01:26:04;7.65;;;4.38;;
33824;SDS011;20127;48.962;8.342;2023-05-29T01:29:15;6.10;;;5.00;;
33824;SDS011;20127;48.962;8.342;2023-05-29T01:32:20;10.15;;;7.18;;
33824;SDS011;20127;48.962;8.342;2023-05-29T01:35:22;9.02;;;4.95;;
33824;SDS011;20127;48.962;8.342;2023-05-29T01:38:24;11.10;;;5.50;;
33824;SDS011;20127;48.962;8.342;2023-05-29T01:41:26;11.60;;;5.97;;
33824;SDS011;20127;48.962;8.342;2023-05-29T01:44:31;9.52;;;5.20;;
33824;SDS011;20127;48.962;8.342;2023-05-29T01:47:33;7.60;;;5.15;;
33824;SDS011;20127;48.962;8.342;2023-05-29T01:50:36;7.38;;;4.70;;
33824;SDS011;20127;48.962;8.342;2023-05-29T01:53:38;7.28;;;5.10;;
33824;SDS011;20127;48.962;8.342;2023-05-29T01:56:41;5.70;;;4.50;;
33824;SDS011;20127;48.962;8.342;2023-05-29T01:59:45;6.63;;;4.85;;
33824;SDS011;20127;48.962;8.342;2023-05-29T02:02:47;6.10;;;4.57;;
33824;SDS011;20127;48.962;8.342;2023-05-29T02:05:49;7.22;;;4.70;;
33824;SDS011;20127;48.962;8.342;2023-05-29T02:08:51;8.82;;;4.70;;
33824;SDS011;20127;48.962;8.342;2023-05-29T02:11:52;9.38;;;5.82;;
33824;SDS011;20127;48.962;8.342;2023-05-29T02:14:55;5.85;;;4.75;;
33824;SDS011;20127;48.962;8.342;2023-05-29T02:17:57;8.57;;;4.68;;
33824;SDS011;20127;48.962;8.342;2023-05-29T02:21:01;5.95;;;4.35;;
33824;SDS011;20127;48.962;8.342;2023-05-29T02:24:03;8.60;;;5.00;;
33824;SDS011;20127;48.962;8.342;2023-05-29T02:27:05;5.30;;;4.28;;
33824;SDS011;20127;48.962;8.342;2023-05-29T02:30:08;10.43;;;5.20;;
33824;SDS011;20127;48.962;8.342;2023-05-29T02:33:10;7.28;;;5.05;;
33824;SDS011;20127;48.962;8.342;2023-05-29T02:36:12;7.78;;;6.05;;
33824;SDS011;20127;48.962;8.342;2023-05-29T02:39:14;10.85;;;5.80;;
33824;SDS011;20127;48.962;8.342;2023-05-29T02:42:15;7.22;;;4.05;;
33824;SDS011;20127;48.962;8.342;2023-05-29T02:45:18;7.30;;;4.40;;
33824;SDS011;20127;48.962;8.342;2023-05-29T02:48:20;9.77;;;5.80;;
33824;SDS011;20127;48.962;8.342;2023-05-29T02:51:22;12.48;;;5.15;;
33824;SDS011;20127;48.962;8.342;2023-05-29T02:54:24;7.85;;;5.10;;
33824;SDS011;20127;48.962;8.342;2023-05-29T02:57:26;7.20;;;5.03;;
33824;SDS011;20127;48.962;8.342;2023-05-29T03:00:29;6.07;;;5.25;;
33824;SDS011;20127;48.962;8.342;2023-05-29T03:03:31;5.75;;;4.30;;
33824;SDS011;20127;48.962;8.342;2023-05-29T03:06:32;7.72;;;5.75;;
33824;SDS011;20127;48.962;8.342;2023-05-29T03:09:34;12.45;;;5.53;;
33824;SDS011;20127;48.962;8.342;2023-05-29T03:12:37;8.95;;;5.32;;
33824;SDS011;20127;48.962;8.342;2023-05-29T03:15:42;9.02;;;4.80;;
33824;SDS011;20127;48.962;8.342;2023-05-29T03:18:44;10.93;;;5.00;;
33824;SDS011;20127;48.962;8.342;2023-05-29T03:21:45;7.13;;;5.07;;
33824;SDS011;20127;48.962;8.342;2023-05-29T03:24:47;9.50;;;4.82;;
33824;SDS011;20127;48.962;8.342;2023-05-29T03:27:49;9.18;;;4.25;;
33824;SDS011;20127;48.962;8.342;2023-05-29T03:30:52;6.22;;;5.05;;
33824;SDS011;20127;48.962;8.342;2023-05-29T03:33:53;7.50;;;5.13;;
33824;SDS011;20127;48.962;8.342;2023-05-29T03:36:55;5.75;;;4.97;;
33824;SDS011;20127;48.962;8.342;2023-05-29T03:39:57;6.97;;;4.57;;
33824;SDS011;20127;48.962;8.342;2023-05-29T03:42:59;7.45;;;4.75;;
33824;SDS011;20127;48.962;8.342;2023-05-29T03:46:02;8.70;;;5.72;;
33824;SDS011;20127;48.962;8.342;2023-05-29T03:49:03;8.60;;;4.97;;
33824;SDS011;20127;48.962;8.342;2023-05-29T03:52:07;8.07;;;5.35;;
33824;SDS011;20127;48.962;8.342;2023-05-29T03:55:09;8.27;;;5.60;;
33824;SDS011;20127;48.962;8.342;2023-05-29T03:58:13;10.30;;;7.53;;
33824;SDS011;20127;48.962;8.342;2023-05-29T04:01:17;12.48;;;5.28;;
33824;SDS011;20127;48.962;8.342;2023-05-29T04:04:18;6.45;;;5.30;;
33824;SDS011;20127;48.962;8.342;2023-05-29T04:07:20;7.63;;;5.60;;
33824;SDS011;20127;48.962;8.342;2023-05-29T04:10:22;10.88;;;6.70;;
33824;SDS011;20127;48.962;8.342;2023-05-29T04:13:24;9.98;;;5.28;;
33824;SDS011;20127;48.962;8.342;2023-05-29T04:16:28;6.35;;;5.05;;
33824;SDS011;20127;48.962;8.342;2023-05-29T04:19:29;8.00;;;5.82;;
33824;SDS011;20127;48.962;8.342;2023-05-29T04:22:31;6.13;;;5.40;;
33824;SDS011;20127;48.962;8.342;2023-05-29T04:25:33;9.40;;;5.22;;
33824;SDS011;20127;48.962;8.342;2023-05-29T04:28:36;7.22;;;5.00;;
33824;SDS011;20127;48.962;8.342;2023-05-29T04:31:39;10.93;;;5.70;;
33824;SDS011;20127;48.962;8.342;2023-05-29T04:34:41;7.07;;;5.20;;
33824;SDS011;20127;48.962;8.342;2023-05-29T04:37:43;7.82;;;4.75;;
33824;SDS011;20127;48.962;8.342;2023-05-29T04:40:45;7.82;;;4.55;;
33824;SDS011;20127;48.962;8.342;2023-05-29T04:43:48;5.40;;;4.28;;
33824;SDS011;20127;48.962;8.342;2023-05-29T04:46:52;10.18;;;6.43;;
33824;SDS011;20127;48.962;8.342;2023-05-29T04:49:54;8.45;;;4.82;;
33824;SDS011;20127;48.962;8.342;2023-05-29T04:52:55;9.32;;;4.18;;
33824;SDS011;20127;48.962;8.342;2023-05-29T04:55:57;10.55;;;4.85;;
33824;SDS011;20127;48.962;8.342;2023-05-29T04:58:59;4.75;;;4.22;;
33824;SDS011;20127;48.962;8.342;2023-05-29T05:02:03;8.15;;;5.20;;
33824;SDS011;20127;48.962;8.342;2023-05-29T05:05:06;9.85;;;4.63;;
33824;SDS011;20127;48.962;8.342;2023-05-29T05:08:08;9.20;;;4.07;;
33824;SDS011;20127;48.962;8.342;2023-05-29T05:11:11;8.07;;;4.68;;
33824;SDS011;20127;48.962;8.342;2023-05-29T05:14:13;5.55;;;4.25;;
33824;SDS011;20127;48.962;8.342;2023-05-29T05:17:16;8.50;;;4.60;;
33824;SDS011;20127;48.962;8.342;2023-05-29T05:20:19;5.70;;;4.30;;
33824;SDS011;20127;48.962;8.342;2023-05-29T05:23:20;8.18;;;4.28;;
33824;SDS011;20127;48.962;8.342;2023-05-29T05:26:22;7.53;;;4.32;;
33824;SDS011;20127;48.962;8.342;2023-05-29T05:29:24;5.55;;;3.58;;
33824;SDS011;20127;48.962;8.342;2023-05-29T05:32:27;6.28;;;4.47;;
33824;SDS011;20127;48.962;8.342;2023-05-29T05:35:28;6.47;;;4.05;;
33824;SDS011;20127;48.962;8.342;2023-05-29T05:38:30;7.32;;;4.55;;
33824;SDS011;20127;48.962;8.342;2023-05-29T05:41:32;4.75;;;3.88;;
33824;SDS011;20127;48.962;8.342;2023-05-29T05:44:34;7.97;;;4.00;;
33824;SDS011;20127;48.962;8.342;2023-05-29T05:47:37;10.02;;;4.60;;
33824;SDS011;20127;48.962;8.342;2023-05-29T05:50:38;8.55;;;4.82;;
33824;SDS011;20127;48.962;8.342;2023-05-29T05:53:40;4.72;;;3.92;;
33824;SDS011;20127;48.962;8.342;2023-05-29T05:56:42;7.28;;;4.80;;
33824;SDS011;20127;48.962;8.342;2023-05-29T05:59:44;6.18;;;4.10;;
33824;SDS011;20127;48.962;8.342;2023-05-29T06:02:47;6.18;;;4.55;;
33824;SDS011;20127;48.962;8.342;2023-05-29T06:05:50;10.82;;;3.95;;
33824;SDS011;20127;48.962;8.342;2023-05-29T06:08:54;6.32;;;3.85;;
33824;SDS011;20127;48.962;8.342;2023-05-29T06:11:56;6.00;;;4.28;;
33824;SDS011;20127;48.962;8.342;2023-05-29T06:14:58;5.50;;;3.67;;
33824;SDS011;20127;48.962;8.342;2023-05-29T06:18:02;7.18;;;4.55;;
33824;SDS011;20127;48.962;8.342;2023-05-29T06:21:09;7.43;;;4.18;;
33824;SDS011;20127;48.962;8.342;2023-05-29T06:24:10;6.75;;;4.47;;
33824;SDS011;20127;48.962;8.342;2023-05-29T06:27:12;6.05;;;3.60;;
33824;SDS011;20127;48.962;8.342;2023-05-29T06:30:14;5.68;;;3.67;;
33824;SDS011;20127;48.962;8.342;2023-05-29T06:33:18;5.68;;;3.55;;
33824;SDS011;20127;48.962;8.342;2023-05-29T06:36:20;7.10;;;4.13;;
33824;SDS011;20127;48.962;8.342;2023-05-29T06:39:22;5.38;;;3.88;;
33824;SDS011;20127;48.962;8.342;2023-05-29T06:42:24;5.70;;;3.85;;
33824;SDS011;20127;48.962;8.342;2023-05-29T06:45:26;6.55;;;3.83;;
33824;SDS011;20127;48.962;8.342;2023-05-29T06:48:29;6.55;;;4.05;;
33824;SDS011;20127;48.962;8.342;2023-05-29T06:51:33;4.97;;;3.60;;
33824;SDS011;20127;48.962;8.342;2023-05-29T06:54:35;6.00;;;3.83;;
33824;SDS011;20127;48.962;8.342;2023-05-29T06:57:37;7.57;;;4.15;;
33824;SDS011;20127;48.962;8.342;2023-05-29T07:00:38;6.95;;;4.53;;
33824;SDS011;20127;48.962;8.342;2023-05-29T07:03:41;4.03;;;3.45;;
33824;SDS011;20127;48.962;8.342;2023-05-29T07:06:43;4.88;;;3.60;;
33824;SDS011;20127;48.962;8.342;2023-05-29T07:09:45;5.22;;;3.55;;
33824;SDS011;20127;48.962;8.342;2023-05-29T07:12:47;6.18;;;3.90;;
33824;SDS011;20127;48.962;8.342;2023-05-29T07:15:48;6.53;;;3.22;;
33824;SDS011;20127;48.962;8.342;2023-05-29T07:18:52;7.93;;;3.95;;
33824;SDS011;20127;48.962;8.342;2023-05-29T07:21:54;6.55;;;3.08;;
33824;SDS011;20127;48.962;8.342;2023-05-29T07:24:55;9.85;;;4.57;;
33824;SDS011;20127;48.962;8.342;2023-05-29T07:27:57;5.40;;;3.97;;
33824;SDS011;20127;48.962;8.342;2023-05-29T07:30:59;5.75;;;3.80;;
33824;SDS011;20127;48.962;8.342;2023-05-29T07:34:02;3.40;;;2.90;;
33824;SDS011;20127;48.962;8.342;2023-05-29T07:37:05;5.25;;;3.97;;
33824;SDS011;20127;48.962;8.342;2023-05-29T07:40:07;4.78;;;3.53;;
33824;SDS011;20127;48.962;8.342;2023-05-29T07:43:10;5.30;;;3.72;;
33824;SDS011;20127;48.962;8.342;2023-05-29T07:46:12;7.80;;;3.08;;
33824;SDS011;20127;48.962;8.342;2023-05-29T07:49:15;12.38;;;2.97;;
33824;SDS011;20127;48.962;8.342;2023-05-29T07:52:16;4.95;;;3.50;;
33824;SDS011;20127;48.962;8.342;2023-05-29T07:55:18;10.40;;;4.50;;
33824;SDS011;20127;48.962;8.342;2023-05-29T07:58:20;4.97;;;2.72;;
33824;SDS011;20127;48.962;8.342;2023-05-29T08:01:21;5.10;;;3.42;;
33824;SDS011;20127;48.962;8.342;2023-05-29T08:04:25;5.20;;;3.90;;
33824;SDS011;20127;48.962;8.342;2023-05-29T08:07:27;5.65;;;3.30;;
33824;SDS011;20127;48.962;8.342;2023-05-29T08:10:28;6.55;;;3.22;;
33824;SDS011;20127;48.962;8.342;2023-05-29T08:13:30;4.38;;;3.47;;
33824;SDS011;20127;48.962;8.342;2023-05-29T08:16:32;7.68;;;4.07;;
33824;SDS011;20127;48.962;8.342;2023-05-29T08:19:35;6.97;;;3.15;;
33824;SDS011;20127;48.962;8.342;2023-05-29T08:22:37;7.80;;;5.00;;
33824;SDS011;20127;48.962;8.342;2023-05-29T08:25:38;6.28;;;3.30;;
33824;SDS011;20127;48.962;8.342;2023-05-29T08:28:40;6.28;;;3.50;;
33824;SDS011;20127;48.962;8.342;2023-05-29T08:31:42;9.38;;;4.03;;
33824;SDS011;20127;48.962;8.342;2023-05-29T08:34:45;7.43;;;3.88;;
33824;SDS011;20127;48.962;8.342;2023-05-29T08:37:47;3.92;;;3.17;;
33824;SDS011;20127;48.962;8.342;2023-05-29T08:40:48;5.88;;;3.92;;
33824;SDS011;20127;48.962;8.342;2023-05-29T08:43:50;6.00;;;3.20;;
33824;SDS011;20127;48.962;8.342;2023-05-29T08:46:54;5.35;;;4.20;;
33824;SDS011;20127;48.962;8.342;2023-05-29T08:49:58;7.78;;;4.28;;
33824;SDS011;20127;48.962;8.342;2023-05-29T08:53:01;7.18;;;3.88;;
33824;SDS011;20127;48.962;8.342;2023-05-29T08:56:04;10.18;;;4.25;;
33824;SDS011;20127;48.962;8.342;2023-05-29T08:59:06;6.75;;;4.35;;
33824;SDS011;20127;48.962;8.342;2023-05-29T09:02:09;7.03;;;3.63;;
33824;SDS011;20127;48.962;8.342;2023-05-29T09:05:13;6.25;;;3.83;;
33824;SDS011;20127;48.962;8.342;2023-05-29T09:08:14;10.30;;;4.03;;
33824;SDS011;20127;48.962;8.342;2023-05-29T09:11:17;5.95;;;4.55;;
33824;SDS011;20127;48.962;8.342;2023-05-29T09:14:34;7.35;;;3.83;;
33824;SDS011;20127;48.962;8.342;2023-05-29T09:17:37;3.05;;;2.60;;
33824;SDS011;20127;48.962;8.342;2023-05-29T09:20:41;4.93;;;3.90;;
33824;SDS011;20127;48.962;8.342;2023-05-29T09:23:42;5.00;;;3.75;;
33824;SDS011;20127;48.962;8.342;2023-05-29T09:26:48;10.05;;;3.40;;
33824;SDS011;20127;48.962;8.342;2023-05-29T09:29:50;5.93;;;3.80;;
33824;SDS011;20127;48.962;8.342;2023-05-29T09:32:53;4.85;;;3.75;;
33824;SDS011;20127;48.962;8.342;2023-05-29T09:35:56;8.95;;;5.03;;
33824;SDS011;20127;48.962;8.342;2023-05-29T09:39:01;9.10;;;5.43;;
33824;SDS011;20127;48.962;8.342;2023-05-29T09:42:04;5.85;;;3.67;;
33824;SDS011;20127;48.962;8.342;2023-05-29T09:45:07;5.95;;;3.72;;
33824;SDS011;20127;48.962;8.342;2023-05-29T09:48:12;6.28;;;4.03;;
33824;SDS011;20127;48.962;8.342;2023-05-29T09:51:22;5.65;;;4.45;;
33824;SDS011;20127;48.962;8.342;2023-05-29T09:54:24;8.90;;;4.22;;
33824;SDS011;20127;48.962;8.342;2023-05-29T09:57:29;7.30;;;3.85;;
33824;SDS011;20127;48.962;8.342;2023-05-29T10:00:31;9.90;;;3.92;;
33824;SDS011;20127;48.962;8.342;2023-05-29T10:03:33;6.07;;;4.80;;
33824;SDS011;20127;48.962;8.342;2023-05-29T10:06:37;6.25;;;4.20;;
33824;SDS011;20127;48.962;8.342;2023-05-29T10:09:43;5.75;;;3.40;;
33824;SDS011;20127;48.962;8.342;2023-05-29T10:12:50;7.38;;;4.30;;
33824;SDS011;20127;48.962;8.342;2023-05-29T10:15:54;3.95;;;3.30;;
33824;SDS011;20127;48.962;8.342;2023-05-29T10:19:01;7.78;;;4.57;;
33824;SDS011;20127;48.962;8.342;2023-05-29T10:22:08;7.50;;;3.90;;
33824;SDS011;20127;48.962;8.342;2023-05-29T10:25:11;6.68;;;4.10;;
33824;SDS011;20127;48.962;8.342;2023-05-29T10:28:15;7.35;;;3.83;;
33824;SDS011;20127;48.962;8.342;2023-05-29T10:31:18;5.95;;;3.42;;
33824;SDS011;20127;48.962;8.342;2023-05-29T10:34:28;8.20;;;4.25;;
33824;SDS011;20127;48.962;8.342;2023-05-29T10:37:42;7.13;;;4.65;;
33824;SDS011;20127;48.962;8.342;2023-05-29T10:40:49;5.50;;;3.80;;
33824;SDS011;20127;48.962;8.342;2023-05-29T10:43:50;5.63;;;4.25;;
33824;SDS011;20127;48.962;8.342;2023-05-29T10:47:01;8.05;;;3.53;;
33824;SDS011;20127;48.962;8.342;2023-05-29T10:50:03;6.40;;;3.67;;
33824;SDS011;20127;48.962;8.342;2023-05-29T10:53:24;5.20;;;4.00;;
33824;SDS011;20127;48.962;8.342;2023-05-29T10:56:28;7.28;;;4.68;;
33824;SDS011;20127;48.962;8.342;2023-05-29T10:59:35;7.60;;;3.65;;
33824;SDS011;20127;48.962;8.342;2023-05-29T11:02:38;7.68;;;4.03;;
33824;SDS011;20127;48.962;8.342;2023-05-29T11:05:55;7.35;;;3.97;;
33824;SDS011;20127;48.962;8.342;2023-05-29T11:08:59;7.25;;;4.07;;
33824;SDS011;20127;48.962;8.342;2023-05-29T11:12:10;8.90;;;3.72;;
33824;SDS011;20127;48.962;8.342;2023-05-29T11:15:13;6.50;;;4.40;;
33824;SDS011;20127;48.962;8.342;2023-05-29T11:18:18;5.70;;;3.53;;
33824;SDS011;20127;48.962;8.342;2023-05-29T11:21:22;5.93;;;3.95;;
33824;SDS011;20127;48.962;8.342;2023-05-29T11:24:31;7.47;;;3.90;;
33824;SDS011;20127;48.962;8.342;2023-05-29T11:27:36;14.40;;;3.92;;
33824;SDS011;20127;48.962;8.342;2023-05-29T11:30:42;13.25;;;3.45;;
33824;SDS011;20127;48.962;8.342;2023-05-29T11:33:48;4.00;;;3.55;;
33824;SDS011;20127;48.962;8.342;2023-05-29T11:36:51;5.57;;;3.63;;
33824;SDS011;20127;48.962;8.342;2023-05-29T11:39:54;6.63;;;3.83;;
33824;SDS011;20127;48.962;8.342;2023-05-29T11:42:56;4.72;;;3.50;;
33824;SDS011;20127;48.962;8.342;2023-05-29T11:45:58;10.88;;;3.90;;
33824;SDS011;20127;48.962;8.342;2023-05-29T11:49:00;7.10;;;3.53;;
33824;SDS011;20127;48.962;8.342;2023-05-29T11:52:05;11.13;;;2.90;;
33824;SDS011;20127;48.962;8.342;2023-05-29T11:55:09;4.38;;;3.30;;
33824;SDS011;20127;48.962;8.342;2023-05-29T11:58:11;10.65;;;4.30;;
33824;SDS011;20127;48.962;8.342;2023-05-29T12:01:16;7.00;;;3.25;;
33824;SDS011;20127;48.962;8.342;2023-05-29T12:04:19;6.70;;;3.13;;
33824;SDS011;20127;48.962;8.342;2023-05-29T12:07:20;6.38;;;3.58;;
33824;SDS011;20127;48.962;8.342;2023-05-29T12:10:24;4.13;;;3.22;;
33824;SDS011;20127;48.962;8.342;2023-05-29T12:13:25;6.40;;;3.15;;
33824;SDS011;20127;48.962;8.342;2023-05-29T12:16:28;3.80;;;3.28;;
33824;SDS011;20127;48.962;8.342;2023-05-29T12:19:33;9.45;;;3.58;;
33824;SDS011;20127;48.962;8.342;2023-05-29T12:22:35;12.20;;;3.47;;
33824;SDS011;20127;48.962;8.342;2023-05-29T12:25:39;5.55;;;3.10;;
33824;SDS011;20127;48.962;8.342;2023-05-29T12:28:43;5.18;;;3.70;;
33824;SDS011;20127;48.962;8.342;2023-05-29T12:31:46;6.55;;;3.45;;
33824;SDS011;20127;48.962;8.342;2023-05-29T12:34:48;6.55;;;3.35;;
33824;SDS011;20127;48.962;8.342;2023-05-29T12:37:53;4.22;;;3.45;;
33824;SDS011;20127;48.962;8.342;2023-05-29T12:40:57;5.80;;;4.05;;
33824;SDS011;20127;48.962;8.342;2023-05-29T12:43:58;4.45;;;4.05;;
33824;SDS011;20127;48.962;8.342;2023-05-29T12:47:03;6.55;;;3.35;;
33824;SDS011;20127;48.962;8.342;2023-05-29T12:50:18;4.28;;;3.53;;
33824;SDS011;20127;48.962;8.342;2023-05-29T12:53:27;3.65;;;2.97;;
33824;SDS011;20127;48.962;8.342;2023-05-29T12:56:32;5.93;;;3.05;;
33824;SDS011;20127;48.962;8.342;2023-05-29T12:59:33;6.35;;;4.28;;
33824;SDS011;20127;48.962;8.342;2023-05-29T13:02:35;5.30;;;3.33;;
33824;SDS011;20127;48.962;8.342;2023-05-29T13:05:37;6.60;;;3.45;;
33824;SDS011;20127;48.962;8.342;2023-05-29T13:08:39;5.68;;;3.28;;
33824;SDS011;20127;48.962;8.342;2023-05-29T13:11:42;6.25;;;2.88;;
33824;SDS011;20127;48.962;8.342;2023-05-29T13:14:44;5.72;;;2.97;;
33824;SDS011;20127;48.962;8.342;2023-05-29T13:17:45;5.22;;;4.25;;
33824;SDS011;20127;48.962;8.342;2023-05-29T13:20:47;8.00;;;3.08;;
33824;SDS011;20127;48.962;8.342;2023-05-29T13:23:49;5.72;;;3.17;;
33824;SDS011;20127;48.962;8.342;2023-05-29T13:26:52;5.22;;;3.50;;
33824;SDS011;20127;48.962;8.342;2023-05-29T13:29:54;3.88;;;3.13;;
33824;SDS011;20127;48.962;8.342;2023-05-29T13:32:55;3.65;;;2.97;;
33824;SDS011;20127;48.962;8.342;2023-05-29T13:35:57;11.02;;;3.17;;
33824;SDS011;20127;48.962;8.342;2023-05-29T13:38:59;4.70;;;3.30;;
33824;SDS011;20127;48.962;8.342;2023-05-29T13:42:02;12.32;;;3.15;;
33824;SDS011;20127;48.962;8.342;2023-05-29T13:45:06;7.18;;;2.78;;
33824;SDS011;20127;48.962;8.342;2023-05-29T13:48:08;5.05;;;3.10;;
33824;SDS011;20127;48.962;8.342;2023-05-29T13:51:10;7.80;;;2.60;;
33824;SDS011;20127;48.962;8.342;2023-05-29T13:54:12;5.47;;;2.85;;
33824;SDS011;20127;48.962;8.342;2023-05-29T13:57:15;7.68;;;2.50;;
33824;SDS011;20127;48.962;8.342;2023-05-29T14:00:17;6.22;;;3.45;;
33824;SDS011;20127;48.962;8.342;2023-05-29T14:03:19;7.10;;;3.20;;
33824;SDS011;20127;48.962;8.342;2023-05-29T14:06:23;4.90;;;3.33;;
33824;SDS011;20127;48.962;8.342;2023-05-29T14:09:25;3.47;;;3.03;;
33824;SDS011;20127;48.962;8.342;2023-05-29T14:12:31;4.88;;;2.88;;
33824;SDS011;20127;48.962;8.342;2023-05-29T14:15:33;3.25;;;2.35;;
33824;SDS011;20127;48.962;8.342;2023-05-29T14:18:34;5.38;;;2.55;;
33824;SDS011;20127;48.962;8.342;2023-05-29T14:21:36;4.93;;;2.60;;
33824;SDS011;20127;48.962;8.342;2023-05-29T14:24:38;5.03;;;3.03;;
33824;SDS011;20127;48.962;8.342;2023-05-29T14:27:41;4.15;;;2.45;;
33824;SDS011;20127;48.962;8.342;2023-05-29T14:30:43;5.57;;;2.88;;
33824;SDS011;20127;48.962;8.342;2023-05-29T14:33:44;3.05;;;2.22;;
33824;SDS011;20127;48.962;8.342;2023-05-29T14:36:46;7.28;;;2.55;;
33824;SDS011;20127;48.962;8.342;2023-05-29T14:39:48;2.53;;;2.30;;
33824;SDS011;20127;48.962;8.342;2023-05-29T14:42:51;4.85;;;2.50;;
33824;SDS011;20127;48.962;8.342;2023-05-29T14:45:53;3.13;;;2.58;;
33824;SDS011;20127;48.962;8.342;2023-05-29T14:48:54;6.00;;;2.47;;
33824;SDS011;20127;48.962;8.342;2023-05-29T14:51:56;7.38;;;3.05;;
33824;SDS011;20127;48.962;8.342;2023-05-29T14:54:58;4.38;;;2.65;;
33824;SDS011;20127;48.962;8.342;2023-05-29T14:58:03;4.30;;;3.30;;
33824;SDS011;20127;48.962;8.342;2023-05-29T15:01:05;5.05;;;2.35;;
33824;SDS011;20127;48.962;8.342;2023-05-29T15:04:07;6.88;;;2.97;;
33824;SDS011;20127;48.962;8.342;2023-05-29T15:07:09;5.32;;;2.47;;
33824;SDS011;20127;48.962;8.342;2023-05-29T15:10:11;5.32;;;2.33;;
33824;SDS011;20127;48.962;8.342;2023-05-29T15:13:14;8.25;;;3.55;;
33824;SDS011;20127;48.962;8.342;2023-05-29T15:16:15;4.15;;;2.60;;
33824;SDS011;20127;48.962;8.342;2023-05-29T15:19:17;3.17;;;2.50;;
33824;SDS011;20127;48.962;8.342;2023-05-29T15:22:19;4.45;;;3.05;;
33824;SDS011;20127;48.962;8.342;2023-05-29T15:25:20;5.88;;;2.10;;
33824;SDS011;20127;48.962;8.342;2023-05-29T15:28:24;3.70;;;2.60;;
33824;SDS011;20127;48.962;8.342;2023-05-29T15:31:25;2.83;;;2.40;;
33824;SDS011;20127;48.962;8.342;2023-05-29T15:34:27;3.50;;;2.30;;
33824;SDS011;20127;48.962;8.342;2023-05-29T15:37:29;3.45;;;3.15;;
33824;SDS011;20127;48.962;8.342;2023-05-29T15:40:31;3.55;;;2.40;;
33824;SDS011;20127;48.962;8.342;2023-05-29T15:43:34;4.47;;;2.78;;
33824;SDS011;20127;48.962;8.342;2023-05-29T15:46:35;2.88;;;2.53;;
33824;SDS011;20127;48.962;8.342;2023-05-29T15:49:37;8.07;;;4.03;;
33824;SDS011;20127;48.962;8.342;2023-05-29T15:52:39;3.42;;;2.25;;
33824;SDS011;20127;48.962;8.342;2023-05-29T15:55:40;3.00;;;2.40;;
33824;SDS011;20127;48.962;8.342;2023-05-29T15:58:44;5.90;;;2.85;;
33824;SDS011;20127;48.962;8.342;2023-05-29T16:01:45;7.13;;;3.05;;
33824;SDS011;20127;48.962;8.342;2023-05-29T16:04:47;3.80;;;2.75;;
33824;SDS011;20127;48.962;8.342;2023-05-29T16:07:49;2.55;;;2.33;;
33824;SDS011;20127;48.962;8.342;2023-05-29T16:10:51;4.22;;;2.55;;
33824;SDS011;20127;48.962;8.342;2023-05-29T16:13:54;4.38;;;2.35;;
33824;SDS011;20127;48.962;8.342;2023-05-29T16:16:55;3.83;;;3.38;;
33824;SDS011;20127;48.962;8.342;2023-05-29T16:19:57;5.93;;;2.65;;
33824;SDS011;20127;48.962;8.342;2023-05-29T16:22:59;3.45;;;2.58;;
33824;SDS011;20127;48.962;8.342;2023-05-29T16:26:00;6.53;;;3.20;;
33824;SDS011;20127;48.962;8.342;2023-05-29T16:29:04;3.65;;;2.90;;
33824;SDS011;20127;48.962;8.342;2023-05-29T16:32:06;3.20;;;2.35;;
33824;SDS011;20127;48.962;8.342;2023-05-29T16:35:09;3.10;;;2.38;;
33824;SDS011;20127;48.962;8.342;2023-05-29T16:38:11;4.25;;;3.03;;
33824;SDS011;20127;48.962;8.342;2023-05-29T16:41:12;3.20;;;2.63;;
33824;SDS011;20127;48.962;8.342;2023-05-29T16:44:16;3.38;;;2.80;;
33824;SDS011;20127;48.962;8.342;2023-05-29T16:47:18;3.58;;;2.65;;
33824;SDS011;20127;48.962;8.342;2023-05-29T16:50:19;5.57;;;2.47;;
33824;SDS011;20127;48.962;8.342;2023-05-29T16:53:21;3.17;;;2.88;;
33824;SDS011;20127;48.962;8.342;2023-05-29T16:56:23;3.63;;;2.78;;
33824;SDS011;20127;48.962;8.342;2023-05-29T16:59:27;4.28;;;3.38;;
33824;SDS011;20127;48.962;8.342;2023-05-29T17:02:28;6.75;;;3.15;;
33824;SDS011;20127;48.962;8.342;2023-05-29T17:05:30;3.78;;;2.78;;
33824;SDS011;20127;48.962;8.342;2023-05-29T17:08:32;3.88;;;2.63;;
33824;SDS011;20127;48.962;8.342;2023-05-29T17:11:34;5.47;;;3.17;;
33824;SDS011;20127;48.962;8.342;2023-05-29T17:14:37;5.03;;;2.67;;
33824;SDS011;20127;48.962;8.342;2023-05-29T17:17:39;4.47;;;2.53;;
33824;SDS011;20127;48.962;8.342;2023-05-29T17:20:41;4.00;;;2.25;;
33824;SDS011;20127;48.962;8.342;2023-05-29T17:23:43;7.30;;;3.22;;
33824;SDS011;20127;48.962;8.342;2023-05-29T17:26:45;4.07;;;2.85;;
33824;SDS011;20127;48.962;8.342;2023-05-29T17:29:48;3.65;;;2.63;;
33824;SDS011;20127;48.962;8.342;2023-05-29T17:32:49;6.20;;;2.50;;
33824;SDS011;20127;48.962;8.342;2023-05-29T17:35:51;4.55;;;2.08;;
33824;SDS011;20127;48.962;8.342;2023-05-29T17:38:53;3.92;;;2.80;;
33824;SDS011;20127;48.962;8.342;2023-05-29T17:41:54;5.03;;;2.63;;
33824;SDS011;20127;48.962;8.342;2023-05-29T17:44:58;4.90;;;2.47;;
33824;SDS011;20127;48.962;8.342;2023-05-29T17:48:00;6.03;;;3.53;;
33824;SDS011;20127;48.962;8.342;2023-05-29T17:51:01;2.97;;;2.25;;
33824;SDS011;20127;48.962;8.342;2023-05-29T17:54:03;5.68;;;3.10;;
33824;SDS011;20127;48.962;8.342;2023-05-29T17:57:10;6.40;;;3.22;;
33824;SDS011;20127;48.962;8.342;2023-05-29T18:00:16;3.75;;;2.42;;
33824;SDS011;20127;48.962;8.342;2023-05-29T18:03:18;5.28;;;3.22;;
33824;SDS011;20127;48.962;8.342;2023-05-29T18:06:20;6.03;;;2.83;;
33824;SDS011;20127;48.962;8.342;2023-05-29T18:09:22;3.47;;;2.60;;
33824;SDS011;20127;48.962;8.342;2023-05-29T18:12:24;4.80;;;3.05;;
33824;SDS011;20127;48.962;8.342;2023-05-29T18:15:27;4.00;;;2.58;;
33824;SDS011;20127;48.962;8.342;2023-05-29T18:18:28;4.15;;;2.58;;
33824;SDS011;20127;48.962;8.342;2023-05-29T18:21:31;5.05;;;3.05;;